createdAt,value
2022-09-15T00:02:27.530Z,99030.09
2022-09-15T00:07:32.126Z,99020.09
2022-09-15T00:12:34.778Z,99012.53
2022-09-15T00:17:37.408Z,99008.59
2022-09-15T00:22:41.375Z,99020.03
2022-09-15T00:27:43.971Z,99027.53
2022-09-15T00:32:46.572Z,99031.44
2022-09-15T00:37:50.561Z,99030.44
2022-09-15T00:42:53.230Z,99023.75
2022-09-15T00:47:55.857Z,99022.16
2022-09-15T00:53:02.035Z,99035.78
2022-09-15T00:58:06.642Z,99049.81
2022-09-15T01:03:09.281Z,99042.75
2022-09-15T01:08:18.815Z,99041.38
2022-09-15T01:13:21.401Z,99041.78
2022-09-15T01:18:28.513Z,99046.03
2022-09-15T01:23:46.723Z,99044.84
2022-09-15T01:29:05.885Z,99041.00
2022-09-15T01:34:15.790Z,99051.78
2022-09-15T01:39:22.616Z,99040.38
2022-09-15T01:44:27.593Z,99050.94
2022-09-15T01:49:35.866Z,99043.22
2022-09-15T01:54:44.257Z,99048.56
2022-09-15T01:59:46.831Z,99050.38
2022-09-15T02:04:53.368Z,99040.66
2022-09-15T02:10:00.783Z,99033.13
2022-09-15T02:15:08.005Z,99034.75
2022-09-15T02:20:16.461Z,99033.94
2022-09-15T02:25:22.013Z,99033.94
2022-09-15T02:30:25.184Z,99016.28
2022-09-15T02:35:30.934Z,99028.84
2022-09-15T02:40:33.872Z,99027.00
2022-09-15T02:45:36.652Z,99028.22
2022-09-15T02:50:41.220Z,99030.31
2022-09-15T02:55:43.801Z,99028.69
2022-09-15T03:00:46.449Z,99025.19
2022-09-15T03:05:50.410Z,99016.41
2022-09-15T03:10:53.075Z,99025.75
2022-09-15T03:15:55.715Z,99020.91
2022-09-15T03:20:59.810Z,99019.91
2022-09-15T03:26:03.968Z,99017.69
2022-09-15T03:31:07.518Z,99018.69
2022-09-15T03:36:11.801Z,99017.88
2022-09-15T03:41:14.802Z,99014.22
2022-09-15T03:46:17.922Z,99024.38
2022-09-15T03:51:22.164Z,99025.41
2022-09-15T03:56:26.070Z,99026.44
2022-09-15T04:01:29.071Z,99017.25
2022-09-15T04:06:33.138Z,99025.38
2022-09-15T04:11:35.736Z,99028.19
2022-09-15T04:16:38.335Z,99030.84
2022-09-15T04:21:42.279Z,99028.19
2022-09-15T04:26:45.164Z,99042.63
2022-09-15T04:31:48.530Z,99048.91
2022-09-15T04:36:52.686Z,99049.53
2022-09-15T04:41:55.455Z,99045.66
2022-09-15T04:46:58.141Z,99054.22
2022-09-15T04:52:04.757Z,99048.53
2022-09-15T04:57:10.663Z,99050.56
2022-09-15T05:02:13.349Z,99056.06
2022-09-15T05:07:17.391Z,99058.94
2022-09-15T05:12:19.973Z,99049.34
2022-09-15T05:17:26.211Z,99050.81
2022-09-15T05:22:30.990Z,99047.16
2022-09-15T05:27:33.810Z,99055.47
2022-09-15T05:32:36.430Z,99047.53
2022-09-15T05:37:40.403Z,99047.31
2022-09-15T05:42:42.999Z,99051.56
2022-09-15T05:47:45.637Z,99059.91
2022-09-15T05:52:53.107Z,99059.69
2022-09-15T05:57:55.706Z,99058.25
2022-09-15T06:02:58.362Z,99058.69
2022-09-15T06:08:02.839Z,99062.75
2022-09-15T06:13:05.984Z,99070.22
2022-09-15T06:18:08.581Z,99071.63
2022-09-15T06:23:12.528Z,99075.63
2022-09-15T06:28:15.183Z,99075.63
2022-09-15T06:33:17.803Z,99070.31
2022-09-15T06:38:21.941Z,99078.69
2022-09-15T06:43:24.635Z,99084.97
2022-09-15T06:48:27.287Z,99086.59
2022-09-15T06:53:32.447Z,99088.88
2022-09-15T06:58:36.217Z,99094.34
2022-09-15T07:03:40.254Z,99089.88
2022-09-15T07:08:45.329Z,99087.47
2022-09-15T07:13:48.537Z,99089.84
2022-09-15T07:18:51.147Z,99103.63
2022-09-15T07:23:57.545Z,99100.75
2022-09-15T07:29:01.556Z,99112.72
2022-09-15T07:34:04.252Z,99107.00
2022-09-15T07:39:08.288Z,99100.84
2022-09-15T07:44:11.829Z,99113.28
2022-09-15T07:49:14.587Z,99127.66
2022-09-15T07:54:22.612Z,99138.81
2022-09-15T07:59:25.717Z,99134.50
2022-09-15T08:04:28.640Z,99132.66
2022-09-15T08:09:32.686Z,99130.19
2022-09-15T08:14:35.957Z,99138.72
2022-09-15T08:19:38.604Z,99136.47
2022-09-15T08:24:42.535Z,99135.06
2022-09-15T08:29:45.255Z,99143.94
2022-09-15T08:34:47.925Z,99148.22
2022-09-15T08:39:52.205Z,99157.78
2022-09-15T08:44:57.920Z,99161.66
2022-09-15T08:50:05.173Z,99154.78
2022-09-15T08:55:15.005Z,99159.41
2022-09-15T09:00:18.446Z,99156.94
2022-09-15T09:05:42.948Z,99162.72
2022-09-15T09:10:51.944Z,99166.34
2022-09-15T09:16:09.442Z,99159.72
2022-09-15T09:21:20.158Z,99151.88
2022-09-15T09:26:24.106Z,99137.59
2022-09-15T09:31:28.621Z,99145.00
2022-09-15T09:36:31.435Z,99139.03
2022-09-15T09:41:38.860Z,99145.75
2022-09-15T09:46:42.655Z,99162.97
2022-09-15T09:51:52.928Z,99145.50
2022-09-15T09:56:58.332Z,99150.47
2022-09-15T10:02:20.917Z,99149.66
2022-09-15T10:07:25.739Z,99146.16
2022-09-15T10:12:34.108Z,99133.50
2022-09-15T10:17:42.482Z,99129.19
2022-09-15T10:22:45.371Z,99135.28
2022-09-15T10:28:03.364Z,99125.72
2022-09-15T10:33:20.135Z,99125.56
2022-09-15T10:38:30.644Z,99115.72
2022-09-15T10:43:42.034Z,99116.00
2022-09-15T10:48:49.860Z,99123.19
2022-09-15T10:54:05.806Z,99118.41
2022-09-15T10:59:38.020Z,99109.63
2022-09-15T11:05:11.575Z,99112.81
2022-09-15T11:10:20.133Z,99120.06
2022-09-15T11:15:38.443Z,99118.78
2022-09-15T11:21:06.953Z,99118.06
2022-09-15T11:26:14.874Z,99114.94
2022-09-15T11:31:22.307Z,99115.69
2022-09-15T11:36:31.448Z,99122.09
2022-09-15T11:41:37.089Z,99129.75
2022-09-15T11:46:51.611Z,99139.13
2022-09-15T11:51:59.433Z,99140.44
2022-09-15T11:57:02.048Z,99145.34
2022-09-15T12:02:12.788Z,99142.31
2022-09-15T12:07:19.766Z,99140.63
2022-09-15T12:12:22.988Z,99145.88
2022-09-15T12:17:30.851Z,99147.97
2022-09-15T12:22:37.438Z,99136.34
2022-09-15T12:27:40.299Z,99134.09
2022-09-15T12:32:44.238Z,99138.41
2022-09-15T12:37:47.877Z,99138.09
2022-09-15T12:42:50.710Z,99136.03
2022-09-15T12:47:56.576Z,99142.38
2022-09-15T12:53:00.938Z,99143.97
2022-09-15T12:58:08.780Z,99142.00
2022-09-15T13:03:28.664Z,99141.34
2022-09-15T13:08:49.316Z,99148.88
2022-09-15T13:13:54.532Z,99148.84
2022-09-15T13:19:17.765Z,99142.66
2022-09-15T13:24:38.769Z,99141.88
2022-09-15T13:29:47.502Z,99142.81
2022-09-15T13:35:41.231Z,99134.69
2022-09-15T13:41:18.726Z,99127.25
2022-09-15T13:46:32.679Z,99137.50
2022-09-15T13:51:38.151Z,99137.84
2022-09-15T13:56:41.246Z,99129.56
2022-09-15T14:01:44.835Z,99130.41
2022-09-15T14:06:50.410Z,99131.50
2022-09-15T14:11:54.310Z,99129.09
2022-09-15T14:16:57.558Z,99124.53
2022-09-15T14:22:02.228Z,99126.28
2022-09-15T14:27:10.128Z,99126.59
2022-09-15T14:32:14.904Z,99125.22
2022-09-15T14:37:23.809Z,99132.13
2022-09-15T14:42:30.647Z,99125.53
2022-09-15T14:47:33.359Z,99114.19
2022-09-15T14:52:40.434Z,99107.56
2022-09-15T14:57:45.506Z,99114.13
2022-09-15T15:02:58.517Z,99106.31
2022-09-15T15:08:05.004Z,99102.47
2022-09-15T15:13:11.215Z,99105.13
2022-09-15T15:18:32.424Z,99108.38
2022-09-15T15:23:46.887Z,99108.97
2022-09-15T15:28:49.783Z,99105.72
2022-09-15T15:33:55.789Z,99106.00
2022-09-15T15:39:01.687Z,99122.03
2022-09-15T15:44:08.604Z,99122.88
2022-09-15T15:49:13.258Z,99120.97
2022-09-15T15:54:17.315Z,99126.63
2022-09-15T15:59:20.927Z,99113.44
2022-09-15T16:04:23.707Z,99117.53
2022-09-15T16:09:27.811Z,99123.84
2022-09-15T16:14:30.460Z,99115.16
2022-09-15T16:19:33.193Z,99122.72
2022-09-15T16:24:37.147Z,99126.22
2022-09-15T16:29:39.722Z,99136.06
2022-09-15T16:34:42.376Z,99139.41
2022-09-15T16:39:46.453Z,99145.03
2022-09-15T16:44:49.123Z,99148.81
2022-09-15T16:49:52.697Z,99140.13
2022-09-15T16:54:57.114Z,99145.69
2022-09-15T16:59:59.756Z,99139.63
2022-09-15T17:05:02.406Z,99145.34
2022-09-15T17:10:07.905Z,99144.53
2022-09-15T17:15:19.964Z,99153.91
2022-09-15T17:20:23.760Z,99150.47
2022-09-15T17:25:30.104Z,99148.19
2022-09-15T17:30:33.327Z,99151.66
2022-09-15T17:35:37.382Z,99150.84
2022-09-15T17:40:41.453Z,99157.81
2022-09-15T17:45:44.144Z,99156.38
2022-09-15T17:50:48.799Z,99159.25
2022-09-15T17:55:54.224Z,99157.63
2022-09-15T18:00:56.959Z,99160.69
2022-09-15T18:06:00.987Z,99160.31
2022-09-15T18:11:06.540Z,99167.66
2022-09-15T18:16:13.154Z,99170.91
2022-09-15T18:21:24.508Z,99178.47
2022-09-15T18:26:28.515Z,99179.69
2022-09-15T18:31:31.348Z,99187.03
2022-09-15T18:36:34.245Z,99192.38
2022-09-15T18:41:38.988Z,99199.91
2022-09-15T18:46:42.015Z,99199.91
2022-09-15T18:51:52.207Z,99196.88
2022-09-15T18:56:56.415Z,99197.88
2022-09-15T19:01:59.278Z,99207.84
2022-09-15T19:07:02.035Z,99210.69
2022-09-15T19:12:06.568Z,99205.00
2022-09-15T19:17:09.307Z,99204.59
2022-09-15T19:22:11.998Z,99209.09
2022-09-15T19:27:16.038Z,99206.00
2022-09-15T19:32:19.301Z,99216.41
2022-09-15T19:37:22.768Z,99217.22
2022-09-15T19:42:26.809Z,99211.94
2022-09-15T19:47:29.507Z,99232.28
2022-09-15T19:52:32.347Z,99226.41
2022-09-15T19:57:39.473Z,99216.03
2022-09-15T20:02:42.537Z,99226.00
2022-09-15T20:07:48.080Z,99231.13
2022-09-15T20:12:52.114Z,99230.69
2022-09-15T20:17:54.787Z,99232.72
2022-09-15T20:22:57.726Z,99233.34
2022-09-15T20:28:01.777Z,99240.47
2022-09-15T20:33:04.434Z,99259.19
2022-09-15T20:38:07.087Z,99260.41
2022-09-15T20:43:11.144Z,99254.31
2022-09-15T20:48:13.749Z,99261.44
2022-09-15T20:53:16.401Z,99260.00
2022-09-15T20:58:20.360Z,99257.56
2022-09-15T21:03:24.086Z,99252.88
2022-09-15T21:08:26.792Z,99256.75
2022-09-15T21:13:32.275Z,99248.59
2022-09-15T21:18:36.388Z,99250.03
2022-09-15T21:23:41.293Z,99250.47
2022-09-15T21:28:45.607Z,99261.44
2022-09-15T21:33:49.023Z,99268.34
2022-09-15T21:38:53.392Z,99268.53
2022-09-15T21:43:58.726Z,99293.16
2022-09-15T21:49:01.424Z,99300.00
2022-09-15T21:54:04.892Z,99295.06
2022-09-15T21:59:09.293Z,99309.44
2022-09-15T22:04:12.244Z,99308.84
2022-09-15T22:09:16.206Z,99322.44
2022-09-15T22:14:21.395Z,99324.28
2022-09-15T22:19:24.202Z,99326.28
2022-09-15T22:24:26.950Z,99322.81
2022-09-15T22:29:30.882Z,99317.69
2022-09-15T22:34:33.512Z,99316.00
2022-09-15T22:39:58.096Z,99314.34
2022-09-15T22:45:00.136Z,99307.56
2022-09-15T22:50:02.757Z,99316.28
2022-09-15T22:55:06.181Z,99316.47
2022-09-15T23:00:12.049Z,99318.09
2022-09-15T23:05:14.685Z,99310.78
2022-09-15T23:10:17.440Z,99313.06
2022-09-15T23:15:21.402Z,99307.19
2022-09-15T23:20:24.019Z,99311.22
2022-09-15T23:25:26.999Z,99317.25
2022-09-15T23:30:30.975Z,99314.50
2022-09-15T23:35:33.582Z,99313.84
2022-09-15T23:40:36.192Z,99327.19
2022-09-15T23:45:40.874Z,99314.31
2022-09-15T23:50:44.113Z,99318.34
2022-09-15T23:55:47.409Z,99318.25
